createdAt,value
2023-03-17T00:01:18.659Z,9.23
2023-03-17T00:03:47.946Z,8.85
2023-03-17T00:06:28.347Z,9.13
2023-03-17T00:08:58.690Z,9.05
2023-03-17T00:11:27.781Z,8.87
2023-03-17T00:13:55.882Z,9.08
2023-03-17T00:16:27.499Z,8.86
2023-03-17T00:18:57.890Z,9.12
2023-03-17T00:21:29.104Z,8.98
2023-03-17T00:23:58.780Z,8.84
2023-03-17T00:26:27.624Z,8.86
2023-03-17T00:28:57.428Z,8.82
2023-03-17T00:31:26.525Z,8.86
2023-03-17T00:33:55.148Z,8.92
2023-03-17T00:36:30.932Z,8.72
2023-03-17T00:38:58.901Z,8.54
2023-03-17T00:41:29.659Z,8.46
2023-03-17T00:43:57.777Z,8.54
2023-03-17T00:46:28.875Z,8.62
2023-03-17T00:48:56.173Z,8.60
2023-03-17T00:51:24.904Z,8.53
2023-03-17T00:53:52.960Z,8.71
2023-03-17T00:56:21.610Z,8.51
2023-03-17T00:58:53.521Z,8.27
2023-03-17T01:01:23.681Z,8.60
2023-03-17T01:03:51.512Z,8.58
2023-03-17T01:06:18.790Z,8.43
2023-03-17T01:08:46.121Z,8.56
2023-03-17T01:11:19.764Z,8.44
2023-03-17T01:13:48.477Z,8.41
2023-03-17T01:16:15.825Z,8.51
2023-03-17T01:18:43.608Z,8.43
2023-03-17T01:21:11.233Z,8.32
2023-03-17T01:23:38.428Z,8.41
2023-03-17T01:26:06.991Z,8.50
2023-03-17T01:28:34.423Z,8.47
2023-03-17T01:31:03.061Z,8.42
2023-03-17T01:33:30.389Z,8.47
2023-03-17T01:35:57.791Z,8.31
2023-03-17T01:38:24.926Z,8.12
2023-03-17T01:40:53.697Z,8.54
2023-03-17T01:43:27.798Z,8.32
2023-03-17T01:46:21.117Z,8.57
2023-03-17T01:48:55.578Z,8.55
2023-03-17T01:51:27.738Z,8.53
2023-03-17T01:53:55.745Z,8.49
2023-03-17T01:56:23.606Z,8.48
2023-03-17T01:58:54.385Z,8.51
2023-03-17T02:01:27.146Z,8.44
2023-03-17T02:03:55.458Z,8.43
2023-03-17T02:06:22.659Z,8.47
2023-03-17T02:08:51.443Z,8.43
2023-03-17T02:11:20.954Z,8.46
2023-03-17T02:13:49.667Z,8.36
2023-03-17T02:16:18.161Z,8.46
2023-03-17T02:18:45.230Z,8.49
2023-03-17T02:21:37.359Z,8.54
2023-03-17T02:24:14.306Z,8.58
2023-03-17T02:26:44.325Z,8.59
2023-03-17T02:29:11.744Z,8.26
2023-03-17T02:31:38.681Z,8.30
2023-03-17T02:34:06.055Z,8.28
2023-03-17T02:36:33.132Z,8.51
2023-03-17T02:39:02.069Z,8.45
2023-03-17T02:41:29.386Z,8.26
2023-03-17T02:43:57.849Z,8.37
2023-03-17T02:46:26.691Z,8.64
2023-03-17T02:48:55.896Z,8.48
2023-03-17T02:51:22.895Z,8.57
2023-03-17T02:53:50.437Z,8.52
2023-03-17T02:56:17.316Z,8.41
2023-03-17T02:58:45.631Z,8.51
2023-03-17T03:01:13.550Z,8.71
2023-03-17T03:03:41.669Z,8.65
2023-03-17T03:06:08.846Z,8.37
2023-03-17T03:08:36.062Z,8.33
2023-03-17T03:11:04.234Z,8.60
2023-03-17T03:13:31.620Z,8.68
2023-03-17T03:15:58.648Z,8.69
2023-03-17T03:18:26.796Z,8.74
2023-03-17T03:20:54.360Z,8.61
2023-03-17T03:23:21.750Z,8.74
2023-03-17T03:25:48.981Z,8.54
2023-03-17T03:28:16.214Z,8.67
2023-03-17T03:30:45.026Z,8.74
2023-03-17T03:33:15.295Z,8.58
2023-03-17T03:35:44.349Z,8.71
2023-03-17T03:38:12.830Z,8.56
2023-03-17T03:40:40.036Z,8.47
2023-03-17T03:43:21.759Z,8.68
2023-03-17T03:45:51.692Z,8.87
2023-03-17T03:48:19.223Z,8.86
2023-03-17T03:50:46.196Z,8.86
2023-03-17T03:53:13.819Z,8.53
2023-03-17T03:55:41.086Z,8.56
2023-03-17T03:58:08.943Z,8.75
2023-03-17T04:00:37.697Z,8.51
2023-03-17T04:03:06.337Z,8.45
2023-03-17T04:05:34.923Z,8.62
2023-03-17T04:08:06.243Z,8.39
2023-03-17T04:10:34.253Z,8.87
2023-03-17T04:13:01.543Z,8.89
2023-03-17T04:15:28.612Z,8.56
2023-03-17T04:17:58.030Z,8.56
2023-03-17T04:20:26.121Z,8.81
2023-03-17T04:22:53.516Z,8.79
2023-03-17T04:25:20.577Z,8.65
2023-03-17T04:27:47.555Z,8.86
2023-03-17T04:30:17.050Z,8.98
2023-03-17T04:32:45.116Z,8.71
2023-03-17T04:35:18.462Z,8.79
2023-03-17T04:37:46.180Z,8.72
2023-03-17T04:40:14.193Z,8.54
2023-03-17T04:42:42.579Z,8.75
2023-03-17T04:45:12.262Z,8.65
2023-03-17T04:47:39.687Z,8.68
2023-03-17T04:50:09.000Z,8.66
2023-03-17T04:52:39.037Z,8.57
2023-03-17T04:55:08.521Z,8.63
2023-03-17T04:57:36.749Z,8.83
2023-03-17T05:00:06.440Z,8.72
2023-03-17T05:02:34.538Z,8.83
2023-03-17T05:05:02.280Z,8.87
2023-03-17T05:07:29.960Z,8.84
2023-03-17T05:09:58.133Z,8.90
2023-03-17T05:12:27.163Z,8.77
2023-03-17T05:14:54.240Z,8.67
2023-03-17T05:17:22.031Z,8.75
2023-03-17T05:19:49.346Z,8.94
2023-03-17T05:22:16.473Z,8.89
2023-03-17T05:24:44.021Z,8.95
2023-03-17T05:27:11.063Z,8.89
2023-03-17T05:29:40.349Z,8.96
2023-03-17T05:32:08.463Z,8.93
2023-03-17T05:34:36.442Z,8.93
2023-03-17T05:37:04.591Z,8.77
2023-03-17T05:39:32.425Z,8.82
2023-03-17T05:41:59.669Z,8.93
2023-03-17T05:44:27.653Z,8.69
2023-03-17T05:46:56.494Z,8.97
2023-03-17T05:49:25.204Z,8.52
2023-03-17T05:51:53.047Z,8.76
2023-03-17T05:54:20.190Z,8.52
2023-03-17T05:56:47.460Z,8.88
2023-03-17T05:59:18.623Z,8.65
2023-03-17T06:01:46.809Z,8.53
2023-03-17T06:04:14.261Z,8.48
2023-03-17T06:06:41.340Z,8.88
2023-03-17T06:09:08.667Z,8.74
2023-03-17T06:11:35.793Z,8.59
2023-03-17T06:14:03.052Z,8.51
2023-03-17T06:16:33.350Z,8.43
2023-03-17T06:19:01.541Z,8.62
2023-03-17T06:21:28.802Z,8.35
2023-03-17T06:23:56.330Z,8.34
2023-03-17T06:26:23.323Z,8.35
2023-03-17T06:28:50.622Z,8.55
2023-03-17T06:31:18.024Z,8.30
2023-03-17T06:33:45.474Z,8.57
2023-03-17T06:36:13.835Z,8.57
2023-03-17T06:38:41.223Z,8.79
2023-03-17T06:41:09.331Z,8.38
2023-03-17T06:43:37.042Z,8.83
2023-03-17T06:46:04.361Z,8.63
2023-03-17T06:48:32.346Z,8.70
2023-03-17T06:50:59.178Z,8.81
2023-03-17T06:53:26.609Z,8.54
2023-03-17T06:55:54.093Z,8.61
2023-03-17T06:58:22.237Z,8.60
2023-03-17T07:00:49.237Z,8.86
2023-03-17T07:03:17.080Z,9.13
2023-03-17T07:05:44.038Z,8.80
2023-03-17T07:08:11.674Z,9.26
2023-03-17T07:10:41.447Z,9.17
2023-03-17T07:13:08.712Z,9.39
2023-03-17T07:15:37.438Z,9.40
2023-03-17T07:18:06.870Z,9.48
2023-03-17T07:20:33.975Z,9.48
2023-03-17T07:23:01.442Z,9.52
2023-03-17T07:25:28.969Z,9.33
2023-03-17T07:27:56.689Z,9.57
2023-03-17T07:30:24.709Z,9.68
2023-03-17T07:32:51.780Z,9.51
2023-03-17T07:35:19.481Z,9.67
2023-03-17T07:37:47.604Z,9.70
2023-03-17T07:40:14.589Z,9.44
2023-03-17T07:42:42.605Z,9.72
2023-03-17T07:45:10.832Z,9.67
2023-03-17T07:47:37.906Z,9.78
2023-03-17T07:50:06.312Z,9.64
2023-03-17T07:52:34.495Z,9.68
2023-03-17T07:55:01.866Z,9.91
2023-03-17T07:57:28.873Z,9.73
2023-03-17T07:59:56.127Z,9.77
2023-03-17T08:02:23.336Z,10.02
2023-03-17T08:04:51.271Z,10.20
2023-03-17T08:07:18.418Z,10.37
2023-03-17T08:09:47.637Z,10.18
2023-03-17T08:12:15.718Z,10.64
2023-03-17T08:14:42.856Z,10.52
2023-03-17T08:17:11.172Z,10.90
2023-03-17T08:19:38.213Z,10.69
2023-03-17T08:22:06.060Z,10.97
2023-03-17T08:24:34.586Z,11.15
2023-03-17T08:27:02.077Z,11.35
2023-03-17T08:29:30.750Z,11.40
2023-03-17T08:31:58.938Z,11.48
2023-03-17T08:34:26.535Z,11.30
2023-03-17T08:36:53.841Z,11.28
2023-03-17T08:39:23.852Z,11.48
2023-03-17T08:41:54.245Z,11.59
2023-03-17T08:44:22.106Z,11.44
2023-03-17T08:46:49.680Z,11.58
2023-03-17T08:49:17.338Z,11.26
2023-03-17T08:51:45.454Z,11.46
2023-03-17T08:54:13.017Z,11.67
2023-03-17T08:56:42.478Z,11.39
2023-03-17T08:59:10.527Z,11.64
2023-03-17T09:01:40.349Z,11.81
2023-03-17T09:04:08.350Z,11.82
2023-03-17T09:06:36.032Z,11.83
2023-03-17T09:09:06.989Z,11.94
2023-03-17T09:11:35.337Z,11.94
2023-03-17T09:14:02.758Z,12.00
2023-03-17T09:16:34.024Z,11.88
2023-03-17T09:19:01.324Z,11.78
2023-03-17T09:21:28.888Z,12.13
2023-03-17T09:23:56.286Z,11.99
2023-03-17T09:26:25.477Z,12.30
2023-03-17T09:28:53.846Z,11.94
2023-03-17T09:31:22.134Z,12.34
2023-03-17T09:33:50.668Z,12.44
2023-03-17T09:36:18.849Z,12.57
2023-03-17T09:38:46.003Z,12.82
2023-03-17T09:41:23.967Z,12.89
2023-03-17T09:44:01.610Z,12.90
2023-03-17T09:46:49.543Z,12.96
2023-03-17T09:49:38.680Z,12.87
2023-03-17T09:52:11.300Z,12.89
2023-03-17T09:54:39.430Z,12.93
2023-03-17T09:57:30.595Z,12.63
2023-03-17T10:00:11.712Z,12.90
2023-03-17T10:02:38.837Z,12.94
2023-03-17T10:05:27.632Z,13.31
2023-03-17T10:08:31.618Z,13.40
2023-03-17T10:11:15.617Z,13.21
2023-03-17T10:14:21.955Z,13.08
2023-03-17T10:16:58.021Z,12.87
2023-03-17T10:19:42.481Z,13.17
2023-03-17T10:22:21.828Z,13.10
2023-03-17T10:24:54.576Z,13.16
2023-03-17T10:27:23.630Z,13.17
2023-03-17T10:29:51.991Z,13.62
2023-03-17T10:32:21.160Z,13.60
2023-03-17T10:34:48.859Z,13.30
2023-03-17T10:37:23.264Z,13.53
2023-03-17T10:39:57.862Z,13.08
2023-03-17T10:42:36.766Z,13.07
2023-03-17T10:45:17.164Z,13.22
2023-03-17T10:47:47.477Z,13.43
2023-03-17T10:50:29.245Z,13.24
2023-03-17T10:53:06.263Z,13.48
2023-03-17T10:55:49.841Z,13.51
2023-03-17T10:58:24.000Z,13.79
2023-03-17T11:00:58.146Z,13.80
2023-03-17T11:03:31.381Z,13.71
2023-03-17T11:06:17.385Z,13.61
2023-03-17T11:08:53.796Z,13.75
2023-03-17T11:11:42.600Z,13.78
2023-03-17T11:14:19.126Z,13.67
2023-03-17T11:17:00.545Z,13.88
2023-03-17T11:19:52.395Z,13.90
2023-03-17T11:22:50.207Z,13.55
2023-03-17T11:25:20.094Z,13.64
2023-03-17T11:27:56.287Z,13.77
2023-03-17T11:31:03.021Z,13.73
2023-03-17T11:33:51.904Z,13.79
2023-03-17T11:36:57.788Z,13.87
2023-03-17T11:39:51.021Z,13.83
2023-03-17T11:42:23.488Z,13.88
2023-03-17T11:44:57.520Z,13.94
2023-03-17T11:47:44.383Z,13.97
2023-03-17T11:50:19.070Z,13.73
2023-03-17T11:53:23.268Z,14.15
2023-03-17T11:56:21.942Z,14.18
2023-03-17T11:58:58.911Z,14.24
2023-03-17T12:01:32.633Z,14.07
2023-03-17T12:04:20.586Z,14.04
2023-03-17T12:06:56.810Z,14.07
2023-03-17T12:09:45.905Z,14.15
2023-03-17T12:12:18.760Z,14.28
2023-03-17T12:14:48.978Z,14.27
2023-03-17T12:17:29.095Z,14.21
2023-03-17T12:20:08.079Z,14.46
2023-03-17T12:22:46.685Z,14.56
2023-03-17T12:25:24.367Z,14.53
2023-03-17T12:27:56.919Z,14.69
2023-03-17T12:30:38.840Z,14.63
2023-03-17T12:33:43.978Z,14.73
2023-03-17T12:36:17.703Z,14.80
2023-03-17T12:38:52.382Z,14.76
2023-03-17T12:42:02.002Z,14.83
2023-03-17T12:44:41.523Z,15.03
2023-03-17T12:47:47.005Z,15.20
2023-03-17T12:50:32.875Z,15.19
2023-03-17T12:53:21.784Z,15.18
2023-03-17T12:55:51.845Z,15.20
2023-03-17T12:58:35.950Z,15.21
2023-03-17T13:01:14.839Z,15.29
2023-03-17T13:04:01.699Z,15.29
2023-03-17T13:06:39.909Z,15.37
2023-03-17T13:09:53.928Z,15.47
2023-03-17T13:12:42.719Z,15.34
2023-03-17T13:15:38.287Z,15.27
2023-03-17T13:18:19.704Z,15.25
2023-03-17T13:21:01.960Z,15.25
2023-03-17T13:23:44.375Z,15.26
2023-03-17T13:26:19.505Z,15.18
2023-03-17T13:28:50.941Z,15.13
2023-03-17T13:31:41.968Z,15.14
2023-03-17T13:34:19.873Z,15.13
2023-03-17T13:37:14.787Z,15.16
2023-03-17T13:40:10.716Z,15.24
2023-03-17T13:42:59.257Z,15.59
2023-03-17T13:45:47.769Z,15.64
2023-03-17T13:48:34.800Z,15.55
2023-03-17T13:51:08.310Z,15.56
2023-03-17T13:53:43.368Z,15.57
2023-03-17T13:56:16.906Z,15.63
2023-03-17T13:59:11.098Z,15.62
2023-03-17T14:01:50.372Z,15.78
2023-03-17T14:04:28.658Z,15.86
2023-03-17T14:07:05.027Z,15.82
2023-03-17T14:09:37.903Z,15.76
2023-03-17T14:12:13.603Z,15.78
2023-03-17T14:14:43.361Z,15.82
2023-03-17T14:17:32.433Z,15.78
2023-03-17T14:20:01.957Z,15.71
2023-03-17T14:22:30.560Z,15.81
2023-03-17T14:25:01.901Z,15.76
2023-03-17T14:27:34.110Z,15.78
2023-03-17T14:30:17.235Z,15.66
2023-03-17T14:33:15.014Z,15.69
2023-03-17T14:35:43.701Z,15.73
2023-03-17T14:38:35.108Z,15.71
2023-03-17T14:41:14.911Z,15.66
2023-03-17T14:43:43.513Z,15.53
2023-03-17T14:46:24.078Z,15.50
2023-03-17T14:48:58.172Z,15.73
2023-03-17T14:51:25.018Z,15.76
2023-03-17T14:53:54.173Z,15.46
2023-03-17T14:56:27.439Z,15.67
2023-03-17T14:58:54.297Z,15.46
2023-03-17T15:01:36.880Z,15.44
2023-03-17T15:04:17.504Z,15.77
2023-03-17T15:06:59.687Z,15.54
2023-03-17T15:09:38.817Z,15.52
2023-03-17T15:12:38.736Z,15.51
2023-03-17T15:15:29.324Z,15.54
2023-03-17T15:17:58.541Z,15.57
2023-03-17T15:20:25.872Z,15.58
2023-03-17T15:22:55.735Z,15.55
2023-03-17T15:25:42.585Z,15.54
2023-03-17T15:28:17.664Z,15.46
2023-03-17T15:30:49.680Z,15.41
2023-03-17T15:33:34.766Z,15.35
2023-03-17T15:36:02.681Z,15.22
2023-03-17T15:38:30.741Z,15.16
2023-03-17T15:40:57.925Z,15.27
2023-03-17T15:43:27.807Z,15.24
2023-03-17T15:46:00.151Z,15.26
2023-03-17T15:48:30.686Z,15.15
2023-03-17T15:51:00.209Z,15.15
2023-03-17T15:53:28.759Z,14.93
2023-03-17T15:55:56.765Z,15.07
2023-03-17T15:58:23.567Z,15.12
2023-03-17T16:00:57.174Z,15.02
2023-03-17T16:03:36.964Z,14.84
2023-03-17T16:06:08.202Z,14.93
2023-03-17T16:08:35.873Z,15.05
2023-03-17T16:11:07.731Z,14.99
2023-03-17T16:13:34.504Z,14.99
2023-03-17T16:16:05.632Z,15.02
2023-03-17T16:18:37.844Z,14.91
2023-03-17T16:21:06.034Z,14.86
2023-03-17T16:23:37.279Z,14.88
2023-03-17T16:26:14.853Z,14.86
2023-03-17T16:28:49.212Z,14.81
2023-03-17T16:31:24.264Z,14.52
2023-03-17T16:33:53.178Z,14.74
2023-03-17T16:36:22.078Z,14.55
2023-03-17T16:38:50.135Z,14.64
2023-03-17T16:41:19.940Z,14.47
2023-03-17T16:43:54.144Z,14.36
2023-03-17T16:46:21.922Z,14.34
2023-03-17T16:48:50.596Z,14.36
2023-03-17T16:51:20.205Z,14.38
2023-03-17T16:53:47.870Z,14.71
2023-03-17T16:56:21.506Z,14.65
2023-03-17T16:58:48.876Z,14.59
2023-03-17T17:01:24.810Z,14.61
2023-03-17T17:03:52.274Z,14.45
2023-03-17T17:06:21.101Z,14.45
2023-03-17T17:08:49.512Z,14.43
2023-03-17T17:11:18.792Z,14.39
2023-03-17T17:13:48.323Z,14.24
2023-03-17T17:16:42.141Z,14.31
2023-03-17T17:19:18.051Z,13.92
2023-03-17T17:21:46.710Z,13.88
2023-03-17T17:24:14.840Z,14.10
2023-03-17T17:26:41.865Z,13.85
2023-03-17T17:29:10.656Z,13.93
2023-03-17T17:31:38.411Z,13.81
2023-03-17T17:34:05.643Z,13.90
2023-03-17T17:36:32.763Z,13.83
2023-03-17T17:38:59.761Z,13.68
2023-03-17T17:41:27.324Z,13.48
2023-03-17T17:43:54.485Z,13.75
2023-03-17T17:46:24.921Z,13.39
2023-03-17T17:48:52.119Z,13.66
2023-03-17T17:51:18.956Z,13.44
2023-03-17T17:53:45.971Z,13.40
2023-03-17T17:56:15.527Z,13.38
2023-03-17T17:58:44.661Z,13.39
2023-03-17T18:01:13.817Z,13.09
2023-03-17T18:03:43.088Z,13.08
2023-03-17T18:06:13.058Z,13.17
2023-03-17T18:08:40.270Z,13.08
2023-03-17T18:11:27.417Z,13.31
2023-03-17T18:13:55.897Z,13.09
2023-03-17T18:16:24.910Z,13.06
2023-03-17T18:18:53.986Z,13.25
2023-03-17T18:21:25.941Z,12.93
2023-03-17T18:23:56.473Z,13.09
2023-03-17T18:26:24.692Z,12.85
2023-03-17T18:28:53.839Z,12.95
2023-03-17T18:31:27.848Z,12.70
2023-03-17T18:34:03.061Z,13.00
2023-03-17T18:36:32.955Z,12.95
2023-03-17T18:39:03.289Z,12.57
2023-03-17T18:41:33.673Z,12.76
2023-03-17T18:44:02.250Z,12.79
2023-03-17T18:46:34.152Z,12.66
2023-03-17T18:49:01.944Z,12.68
2023-03-17T18:51:30.130Z,12.56
2023-03-17T18:53:58.510Z,12.48
2023-03-17T18:56:31.320Z,12.56
2023-03-17T18:58:59.606Z,12.29
2023-03-17T19:01:27.474Z,12.29
2023-03-17T19:03:57.372Z,12.48
2023-03-17T19:06:26.203Z,12.45
2023-03-17T19:08:57.738Z,12.23
2023-03-17T19:11:30.180Z,12.13
2023-03-17T19:14:00.935Z,12.38
2023-03-17T19:16:31.216Z,12.34
2023-03-17T19:19:02.547Z,12.27
2023-03-17T19:21:30.428Z,12.24
2023-03-17T19:24:02.481Z,12.31
2023-03-17T19:26:34.552Z,12.19
2023-03-17T19:29:02.137Z,12.07
2023-03-17T19:31:29.263Z,11.98
2023-03-17T19:33:56.548Z,11.90
2023-03-17T19:36:26.043Z,11.88
2023-03-17T19:41:33.629Z,12.10
2023-03-17T19:44:35.864Z,11.82
2023-03-17T19:47:05.263Z,12.10
2023-03-17T19:49:34.290Z,12.07
2023-03-17T19:52:02.222Z,11.81
2023-03-17T19:54:29.636Z,12.00
2023-03-17T19:56:57.965Z,11.90
2023-03-17T19:59:25.648Z,12.14
2023-03-17T20:01:52.841Z,11.96
2023-03-17T20:04:21.869Z,12.05
2023-03-17T20:06:55.497Z,11.91
2023-03-17T20:09:26.625Z,12.10
2023-03-17T20:11:54.796Z,11.85
2023-03-17T20:14:24.904Z,11.91
2023-03-17T20:16:54.944Z,12.22
2023-03-17T20:19:22.999Z,12.19
2023-03-17T20:21:51.718Z,11.95
2023-03-17T20:24:19.203Z,12.13
2023-03-17T20:26:47.057Z,11.90
2023-03-17T20:29:14.709Z,11.95
2023-03-17T20:31:42.745Z,11.91
2023-03-17T20:34:11.516Z,12.24
2023-03-17T20:36:42.622Z,12.13
2023-03-17T20:39:14.946Z,12.10
2023-03-17T20:41:43.176Z,12.06
2023-03-17T20:44:12.302Z,12.07
2023-03-17T20:46:42.633Z,12.02
2023-03-17T20:49:10.129Z,11.88
2023-03-17T20:51:38.316Z,11.98
2023-03-17T20:54:08.883Z,12.22
2023-03-17T20:56:36.688Z,11.91
2023-03-17T20:59:05.333Z,11.99
2023-03-17T21:04:28.020Z,12.17
2023-03-17T21:06:54.767Z,12.19
2023-03-17T21:09:21.346Z,12.24
2023-03-17T21:11:49.115Z,12.41
2023-03-17T21:14:16.459Z,12.56
2023-03-17T21:16:45.163Z,12.72
2023-03-17T21:19:15.532Z,12.48
2023-03-17T21:21:42.187Z,12.60
2023-03-17T21:24:24.829Z,12.69
2023-03-17T21:26:51.492Z,12.83
2023-03-17T21:29:18.135Z,12.89
2023-03-17T21:31:44.876Z,12.64
2023-03-17T21:34:12.600Z,12.73
2023-03-17T21:36:39.414Z,12.73
2023-03-17T21:39:06.273Z,12.63
2023-03-17T21:41:37.906Z,12.78
2023-03-17T21:44:06.607Z,12.75
2023-03-17T21:46:33.564Z,12.62
2023-03-17T21:49:01.379Z,12.63
2023-03-17T21:51:28.563Z,12.66
2023-03-17T21:53:56.439Z,12.72
2023-03-17T21:56:23.358Z,12.50
2023-03-17T21:58:50.453Z,12.46
2023-03-17T22:01:18.942Z,12.47
2023-03-17T22:03:46.317Z,12.50
2023-03-17T22:06:14.206Z,12.37
2023-03-17T22:08:41.462Z,12.33
2023-03-17T22:11:09.939Z,12.33
2023-03-17T22:13:37.315Z,12.14
2023-03-17T22:16:04.750Z,12.30
2023-03-17T22:18:32.793Z,12.22
2023-03-17T22:21:00.193Z,11.98
2023-03-17T22:23:27.781Z,12.08
2023-03-17T22:25:56.431Z,12.17
2023-03-17T22:28:24.329Z,12.15
2023-03-17T22:30:51.435Z,12.17
2023-03-17T22:33:18.155Z,12.13
2023-03-17T22:35:44.857Z,12.04
2023-03-17T22:38:13.006Z,12.04
2023-03-17T22:40:39.608Z,12.08
2023-03-17T22:43:06.440Z,12.01
2023-03-17T22:45:33.298Z,11.89
2023-03-17T22:48:00.144Z,11.93
2023-03-17T22:50:26.807Z,11.82
2023-03-17T22:52:53.505Z,11.95
2023-03-17T22:55:20.170Z,11.83
2023-03-17T22:57:47.370Z,11.77
2023-03-17T23:00:17.019Z,11.77
2023-03-17T23:02:45.869Z,11.86
2023-03-17T23:05:13.527Z,11.76
2023-03-17T23:07:50.457Z,11.73
2023-03-17T23:10:23.046Z,11.67
2023-03-17T23:12:50.808Z,11.56
2023-03-17T23:15:18.941Z,11.60
2023-03-17T23:17:46.274Z,11.50
2023-03-17T23:20:13.828Z,11.39
2023-03-17T23:22:40.351Z,11.44
2023-03-17T23:25:07.493Z,11.36
2023-03-17T23:27:34.224Z,11.30
2023-03-17T23:30:01.181Z,11.20
2023-03-17T23:32:27.690Z,11.04
2023-03-17T23:34:54.697Z,10.88
2023-03-17T23:37:21.660Z,10.78
2023-03-17T23:39:48.571Z,10.64
2023-03-17T23:42:16.901Z,10.86
2023-03-17T23:44:45.219Z,10.87
2023-03-17T23:47:11.931Z,10.85
2023-03-17T23:49:39.101Z,10.78
2023-03-17T23:52:05.805Z,10.71
2023-03-17T23:54:33.053Z,10.73
2023-03-17T23:56:59.968Z,10.64
2023-03-17T23:59:26.648Z,10.49
